• Join FlightAware (Why Join?)
  • Login
  • US Flag 
10:31PM EST


 

Airport Tracker/Info


-or-


 

Live Flight TrackerFlight Track Log ✈ FDX1347 ✈ 01-Jul-2013 ✈ KALB - KMEM

Flight Track Log - Related Links

Times and Time Zones

All times are in EDT time to prevent confusion due to time zone crossing. See the FDX1347 flight status page for this flight to view local times or setup timezone preferences in your user account.

Time Position Orientation Groundspeed Altitude Reporting Facility
EDT Latitude Longitude Course Direction KTS MPH feet Rate Location/Type
10:16PM 42.7714 -73.8092 332° Northwest 176 203 1,400  Level Boston Center
10:17PM 42.8314 -73.8528 332° Northwest 257 296 3,700 2,520 Climbing Boston Center
10:18PM 42.7992 -73.9314 241° Southwest 247 284 7,000 3,000 Climbing Boston Center
10:19PM 42.7339 -73.9778 208° Southwest 232 267 10,100 2,160 Climbing Boston Center
10:20PM 42.6850 -74.0558 230° Southwest 271 312 11,400 1,680 Climbing Boston Center
10:21PM 42.6247 -74.1725 235° Southwest 336 387 13,500 2,220 Climbing Boston Center
10:22PM 42.5708 -74.2839 237° Southwest 363 418 15,900 2,160 Climbing Boston Center
10:23PM 42.5125 -74.4061 237° Southwest 375 432 17,900 1,860 Climbing Boston Center
10:24PM 42.4583 -74.5225 238° Southwest 387 445 19,700 1,800 Climbing Boston Center
10:25PM 42.3936 -74.6469 235° Southwest 400 460 21,500 1,860 Climbing Boston Center
10:26PM 42.3306 -74.7794 237° Southwest 411 473 23,500 1,740 Climbing Boston Center
10:27PM 42.2672 -74.9092 237° Southwest 416 479 25,000 1,500 Climbing Boston Center
10:30PM 42.1286 -75.1861 236° Southwest 423 487 28,300 1,380 Climbing New York Center
10:31PM 42.0631 -75.3214 237° Southwest 428 493 29,500 1,260 Climbing New York Center
10:32PM 42.0058 -75.4569 240° Southwest 428 493 30,900 1,200 Climbing New York Center
10:33PM 41.9503 -75.5925 241° Southwest 423 487 32,000 540 Climbing New York Center
10:34PM 41.8950 -75.7250 241° Southwest 418 481 32,000 480 Level New York Center
10:35PM 41.8392 -75.8600 241° Southwest 418 481 33,000 1,200 Climbing New York Center
10:36PM 41.7836 -75.9922 241° Southwest 413 475 34,500 1,440 Climbing New York Center
10:37PM 41.7322 -76.1186 241° Southwest 400 460 36,000 720 Climbing New York Center
10:38PM 41.6786 -76.2450 240° Southwest 400 460 36,000  Level New York Center
10:39PM 41.6269 -76.3683 241° Southwest 400 460 36,000  Level New York Center
10:40PM 41.5728 -76.4969 241° Southwest 400 460 36,000  Level New York Center
10:41PM 41.5119 -76.6386 240° Southwest 405 466 36,000  Level New York Center
10:42PM 41.4575 -76.7639 240° Southwest 399 459 36,000  Level New York Center
10:43PM 41.4011 -76.8917 240° Southwest 399 459 36,000  Level New York Center
10:44PM 41.3467 -77.0167 240° Southwest 399 459 36,000  Level New York Center
10:45PM 41.2922 -77.1414 240° Southwest 399 459 36,000  Level New York Center
10:46PM 41.2375 -77.2661 240° Southwest 399 459 36,000  Level New York Center
10:47PM 41.1828 -77.3875 239° Southwest 399 459 36,000  Level New York Center
10:48PM 41.0836 -77.6161 240° Southwest 400 460 36,000  Level Cleveland Center
10:49PM 41.0283 -77.7369 239° Southwest 395 455 36,000  Level Cleveland Center
10:50PM 40.9728 -77.8578 239° Southwest 395 455 36,000  Level Cleveland Center
10:51PM 40.9194 -77.9808 240° Southwest 395 455 36,000  Level Cleveland Center
10:52PM 40.8572 -78.0931 234° Southwest 395 455 36,000  Level Cleveland Center
10:53PM 40.7758 -78.1811 219° Southwest 384 442 36,000  Level Cleveland Center
10:54PM 40.6942 -78.2692 219° Southwest 379 436 36,000  Level Cleveland Center
10:55PM 40.6147 -78.3594 221° Southwest 384 442 36,000  Level Cleveland Center
10:56PM 40.5331 -78.4494 220° Southwest 384 442 36,000  Level Cleveland Center
10:57PM 40.4556 -78.5447 223° Southwest 384 442 36,000  Level Cleveland Center
10:58PM 40.3928 -78.6531 233° Southwest 379 436 36,000  Level Cleveland Center
10:59PM 40.3342 -78.7719 237° Southwest 385 443 36,000  Level Cleveland Center
11:00PM 40.2819 -78.8903 240° Southwest 385 443 36,000  Level Cleveland Center
11:01PM 40.2253 -79.0086 238° Southwest 390 449 36,000  Level Cleveland Center
11:02PM 40.1725 -79.1267 240° Southwest 390 449 36,000  Level Cleveland Center
11:03PM 40.1197 -79.2336 237° Southwest 390 449 36,000  Level Cleveland Center
11:04PM 40.0667 -79.3489 239° Southwest 390 449 36,000  Level Cleveland Center
11:05PM 40.0117 -79.4664 239° Southwest 390 449 36,000  Level Cleveland Center
11:06PM 39.9483 -79.5975 238° Southwest 390 449 36,000  Level Cleveland Center
11:07PM 39.8931 -79.7144 238° Southwest 390 449 36,000  Level Cleveland Center
11:08PM 39.8375 -79.8314 238° Southwest 390 449 36,000  Level Cleveland Center
11:09PM 39.7819 -79.9483 238° Southwest 390 449 36,000  Level Cleveland Center
11:10PM 39.7242 -80.0647 237° Southwest 390 449 36,000  Level Cleveland Center
11:11PM 39.6661 -80.1811 237° Southwest 390 449 36,000  Level Cleveland Center
11:12PM 39.6083 -80.3000 238° Southwest 395 455 36,000  Level Cleveland Center
11:13PM 39.5500 -80.4189 238° Southwest 395 455 36,000  Level Cleveland Center
11:15PM 39.4814 -80.5528 236° Southwest 384 442 36,000  Level Indianapolis Center
11:16PM 39.4228 -80.6683 237° Southwest 385 443 36,000  Level Indianapolis Center
11:17PM 39.3661 -80.7836 238° Southwest 382 440 36,000  Level Indianapolis Center
11:18PM 39.3094 -80.8978 237° Southwest 379 436 36,000  Level Indianapolis Center
11:19PM 39.2522 -81.0117 237° Southwest 380 437 36,000  Level Indianapolis Center
11:20PM 39.1950 -81.1253 237° Southwest 380 437 36,000  Level Indianapolis Center
11:21PM 39.1378 -81.2406 237° Southwest 381 438 36,000  Level Indianapolis Center
11:22PM 39.0678 -81.3778 237° Southwest 383 441 36,000  Level Indianapolis Center
11:23PM 39.0094 -81.4931 237° Southwest 388 447 36,000  Level Indianapolis Center
11:24PM 38.9517 -81.6075 237° Southwest 386 444 36,000  Level Indianapolis Center
11:25PM 38.8922 -81.7225 236° Southwest 391 450 36,000  Level Indianapolis Center
11:26PM 38.8333 -81.8378 237° Southwest 392 451 36,000  Level Indianapolis Center
11:27PM 38.7739 -81.9531 237° Southwest 393 452 36,000  Level Indianapolis Center
11:28PM 38.7131 -82.0683 236° Southwest 393 452 36,000  Level Indianapolis Center
11:29PM 38.6531 -82.1842 236° Southwest 393 452 36,000  Level Indianapolis Center
11:30PM 38.5939 -82.2992 237° Southwest 390 449 36,000  Level Indianapolis Center
11:31PM 38.5217 -82.4336 236° Southwest 381 438 36,000  Level Indianapolis Center
11:32PM 38.4697 -82.5333 236° Southwest 375 432 36,000  Level Indianapolis Center
11:33PM 38.4119 -82.6433 236° Southwest 372 428 36,000  Level Indianapolis Center
11:34PM 38.3539 -82.7508 235° Southwest 370 426 36,000  Level Indianapolis Center
11:35PM 38.2872 -82.8764 236° Southwest 367 422 36,000  Level Indianapolis Center
11:36PM 38.2294 -82.9842 236° Southwest 368 423 36,000  Level Indianapolis Center
11:37PM 38.1717 -83.0922 236° Southwest 369 425 36,000  Level Indianapolis Center
11:38PM 38.1139 -83.2028 236° Southwest 373 429 36,000  Level Indianapolis Center
11:39PM 38.0556 -83.3100 235° Southwest 371 427 36,000  Level Indianapolis Center
11:40PM 37.9961 -83.4175 235° Southwest 372 428 36,000  Level Indianapolis Center
11:41PM 37.9364 -83.5283 236° Southwest 379 436 36,000  Level Indianapolis Center
11:42PM 37.8761 -83.6394 236° Southwest 381 438 36,000  Level Indianapolis Center
11:43PM 37.8164 -83.7489 235° Southwest 379 436 36,000  Level Indianapolis Center
11:44PM 37.7558 -83.8611 236° Southwest 385 443 36,000  Level Indianapolis Center
11:45PM 37.6947 -83.9722 235° Southwest 385 443 36,000  Level Indianapolis Center
11:46PM 37.6228 -84.1000 235° Southwest 384 442 36,000  Level Indianapolis Center
11:47PM 37.5614 -84.2103 235° Southwest 384 442 36,000  Level Indianapolis Center
11:48PM 37.5006 -84.3206 235° Southwest 383 441 36,000  Level Indianapolis Center
11:49PM 37.4400 -84.4297 235° Southwest 381 438 36,000  Level Indianapolis Center
11:50PM 37.3786 -84.5383 235° Southwest 382 440 36,000  Level Indianapolis Center
11:51PM 37.3189 -84.6469 235° Southwest 379 436 36,000  Level Indianapolis Center
11:52PM 37.2617 -84.7611 238° Southwest 386 444 36,000  Level Indianapolis Center
11:53PM 37.2122 -84.8786 242° Southwest 383 441 36,000  Level Indianapolis Center
11:54PM 37.1603 -84.9969 241° Southwest 385 443 36,000  Level Indianapolis Center
11:55PM 37.1083 -85.1172 242° Southwest 389 448 36,000  Level Indianapolis Center
11:56PM 37.0536 -85.2361 240° Southwest 394 453 36,000  Level Indianapolis Center
11:57PM 36.9944 -85.3694 241° Southwest 385 443 36,000  Level Indianapolis Center
11:58PM 36.9425 -85.4844 241° Southwest 384 442 36,000  Level Indianapolis Center
11:59PM 36.8950 -85.5903 241° Southwest 385 443 36,000  Level Indianapolis Center
12:00AM 36.8417 -85.7083 241° Southwest 386 444 36,000  Level Indianapolis Center
12:01AM 36.7975 -85.8333 246° West 398 458 36,000  Level Indianapolis Center
12:02AM 36.8239 -85.9756 283° West 434 499 36,000  Level Indianapolis Center
12:03AM 36.9042 -86.1036 308° West 462 532 36,000  Level Indianapolis Center
12:04AM 36.9167 -86.2481 276° West 425 489 36,000  Level Indianapolis Center
12:05AM 36.8603 -86.3639 239° Southwest 391 450 36,000  Level Indianapolis Center
12:06AM 36.8019 -86.4600 233° Southwest 387 445 36,000  Level Memphis Center
12:07AM 36.7383 -86.5639 233° Southwest 387 445 36,000  Level Memphis Center
12:08AM 36.6708 -86.6731 232° Southwest 392 451 36,000  Level Memphis Center
12:09AM 36.6072 -86.7769 233° Southwest 392 451 36,000  Level Memphis Center
12:10AM 36.5394 -86.8883 233° Southwest 405 466 36,000  Level Memphis Center
12:11AM 36.4697 -87.0022 233° Southwest 405 466 36,000  Level Memphis Center
12:12AM 36.3975 -87.1161 232° Southwest 416 479 36,000  Level Memphis Center
12:13AM 36.3275 -87.2244 231° Southwest 416 479 36,000 -300 Level Memphis Center
12:14AM 36.2572 -87.3303 231° Southwest 411 473 35,500 -540 Descending Memphis Center
12:15AM 36.1867 -87.4408 232° Southwest 411 473 35,000 -480 Descending Memphis Center
12:16AM 36.1183 -87.5486 232° Southwest 411 473 34,600 -540 Descending Memphis Center
12:17AM 36.0458 -87.6614 232° Southwest 411 473 34,000 -300 Descending Memphis Center
12:18AM 35.9731 -87.7717 231° Southwest 416 479 34,000  Level Memphis Center
12:19AM 35.9003 -87.8842 231° Southwest 416 479 34,000 -60 Level Memphis Center
12:20AM 35.8378 -87.9833 232° Southwest 416 479 33,900 -1,200 Descending Memphis Center
12:21AM 35.7647 -88.0953 231° Southwest 421 484 31,700 -2,400 Descending Memphis Center
12:22AM 35.6997 -88.1994 232° Southwest 414 476 29,200 -2,460 Descending Memphis Center
12:23AM 35.6244 -88.3139 231° Southwest 402 463 26,800 -2,460 Descending Memphis Center
12:24AM 35.5553 -88.4125 229° Southwest 397 457 24,300 -2,400 Descending Memphis Center
12:25AM 35.4817 -88.5061 226° Southwest 385 443 22,000 -2,340 Descending Memphis Center
12:26AM 35.4097 -88.5917 224° Southwest 376 433 19,700 -2,220 Descending Memphis Center
12:27AM 35.3464 -88.6744 227° Southwest 376 433 17,600 -2,100 Descending Memphis Center
12:28AM 35.2786 -88.7650 227° Southwest 364 419 15,500 -2,160 Descending Memphis Center
12:29AM 35.2108 -88.8450 224° Southwest 353 406 13,400 -2,100 Descending Memphis Center
12:30AM 35.1450 -88.9275 226° Southwest 348 400 11,400 -1,560 Descending Memphis Center
12:31AM 35.0833 -89.0072 227° Southwest 333 383 10,300 -1,200 Descending Memphis Center
12:32AM 35.0319 -89.0867 232° Southwest 307 353 9,100 -1,200 Descending Memphis Center
12:33AM 35.0350 -89.1803 272° West 261 300 7,900 -1,140 Descending Memphis Center
12:34AM 35.0400 -89.2692 274° West 266 306 6,900 -1,200 Descending Memphis Center
12:35AM 35.0408 -89.3553 271° West 253 291 5,600 -1,320 Descending Memphis Center
12:36AM 35.0414 -89.4414 270° West 253 291 4,300 -840 Descending Memphis Center
12:37AM 35.0464 -89.5303 274° West 253 291 4,000 -300 Descending Memphis Center
12:38AM 35.0511 -89.6164 274° West 253 291 3,800 -540 Descending Memphis Center
12:39AM 35.0514 -89.7025 270° West 253 291 3,000 -480 Descending Memphis Center
12:40AM 35.0539 -89.7786 272° West 235 270 2,900 -600 Descending Memphis Center
12:41AM 35.0564 -89.8447 273° West 216 249 1,900 -840 Descending Memphis Center
12:42AM 35.0567 -89.9031 270° West 192 221 1,300 -660 Descending Memphis Center
12:43AM 35.0589 -89.9461 274° West 167 192 600 16,800 Descending Memphis Center
12:44AM 35.0589 -90.0147 270° West 167 192 35,000 17,160 Climbing Memphis Center
12:45AM 35.0592 -90.0706 270° West 167 192 35,000  Level Memphis Center
12:47AM 35.0424 -89.9767 270° West  Level Estimated
12:54AM 35.0424 -89.9767 270° West  Level Estimated
12:55AM 35.0424 -89.9767 270° West  Level Estimated
12:56AM 35.0424 -89.9767 270° West  Level Estimated
12:57AM 35.0424 -89.9767 270° West  Level Estimated
12:58AM 35.0424 -89.9767 270° West  Level Estimated